Home > Products > Valid Products > TAF

000
FTUS43 KMKX 302018 AAA
TAFMKE
TAF AMD
KMKE 302018Z 3020/3124 02019G31KT 6SM -SHRA BR OVC015
     FM302300 02019G30KT P6SM OVC030
     FM310000 03020G29KT P6SM OVC040
     FM311100 02016G24KT P6SM SCT090=



000
FTUS43 KMKX 302018 AAA
TAFMSN
TAF AMD
KMSN 302018Z 3020/3118 04014G25KT P6SM VCSH OVC015
     FM302200 04013G20KT P6SM OVC035
     FM310200 05009KT P6SM BKN140
     FM310900 02008KT P6SM FEW200
     FM311500 05012G19KT P6SM FEW250=



000
FTUS43 KMKX 302018 AAA
TAFMSN
TAF AMD
KMSN 302018Z 3020/3118 04014G25KT P6SM VCSH OVC015
     FM302200 04013G20KT P6SM OVC035
     FM310200 05009KT P6SM BKN140
     FM310900 02008KT P6SM FEW200
     FM311500 05012G19KT P6SM FEW250=



000
FTUS43 KMKX 302018 AAA
TAFMKE
TAF AMD
KMKE 302018Z 3020/3124 02019G31KT 6SM -SHRA BR OVC015
     FM302300 02019G30KT P6SM OVC030
     FM310000 03020G29KT P6SM OVC040
     FM311100 02016G24KT P6SM SCT090=



000
FTUS43 KMKX 301748
TAFMSN
TAF
KMSN 301748Z 3018/3118 04012G21KT 6SM -SHRA BR OVC010
     FM302000 04012G20KT P6SM -SHRA OVC015
     FM302100 04012G20KT P6SM OVC015
     FM302200 04013G20KT P6SM OVC035
     FM310200 05009KT P6SM BKN140
     FM310900 02008KT P6SM FEW200
     FM311500 05012G19KT P6SM FEW250=



000
FTUS43 KMKX 301748
TAFMKE
TAF
KMKE 301748Z 3018/3124 02019G29KT 4SM SHRA BR OVC008
     FM302100 02019G31KT 6SM -SHRA BR OVC015
     FM302300 02019G30KT P6SM OVC030
     FM310000 03020G29KT P6SM OVC040
     FM311100 02016G24KT P6SM SCT090=



000
FTUS43 KMKX 301748
TAFMSN
TAF
KMSN 301748Z 3018/3118 04012G21KT 6SM -SHRA BR OVC010
     FM302000 04012G20KT P6SM -SHRA OVC015
     FM302100 04012G20KT P6SM OVC015
     FM302200 04013G20KT P6SM OVC035
     FM310200 05009KT P6SM BKN140
     FM310900 02008KT P6SM FEW200
     FM311500 05012G19KT P6SM FEW250=



000
FTUS43 KMKX 301748
TAFMKE
TAF
KMKE 301748Z 3018/3124 02019G29KT 4SM SHRA BR OVC008
     FM302100 02019G31KT 6SM -SHRA BR OVC015
     FM302300 02019G30KT P6SM OVC030
     FM310000 03020G29KT P6SM OVC040
     FM311100 02016G24KT P6SM SCT090=



000
FTUS43 KMKX 301748
TAFMSN
TAF
KMSN 301748Z 3018/3118 04012G21KT 6SM -SHRA BR OVC010
     FM302000 04012G20KT P6SM -SHRA OVC015
     FM302100 04012G20KT P6SM OVC015
     FM302200 04013G20KT P6SM OVC035
     FM310200 05009KT P6SM BKN140
     FM310900 02008KT P6SM FEW200
     FM311500 05012G19KT P6SM FEW250=



000
FTUS43 KMKX 301748
TAFMSN
TAF
KMSN 301748Z 3018/3118 04012G21KT 6SM -SHRA BR OVC010
     FM302000 04012G20KT P6SM -SHRA OVC015
     FM302100 04012G20KT P6SM OVC015
     FM302200 04013G20KT P6SM OVC035
     FM310200 05009KT P6SM BKN140
     FM310900 02008KT P6SM FEW200
     FM311500 05012G19KT P6SM FEW250=



000
FTUS43 KMKX 301452 AAB
TAFMKE
TAF AMD
KMKE 301452Z 3015/3118 02014G24KT 6SM -SHRA BR OVC005
     FM301800 02020G28KT 3SM RA OVC008
     FM302100 02020G31KT 5SM -RA OVC025
     FM302300 02020G30KT P6SM OVC040
     FM310600 03018G26KT P6SM SCT150=



000
FTUS43 KMKX 301452 AAA
TAFMSN
TAF AMD
KMSN 301452Z 3015/3112 05014G21KT 5SM -SHRA BR OVC008
     FM301600 04014G22KT 6SM -SHRA BR OVC008
     FM301800 04013G20KT P6SM OVC015
     FM302000 04013G20KT P6SM OVC035
     FM310200 04009KT P6SM SCT150=



000
FTUS43 KMKX 301452 AAB
TAFMKE
TAF AMD
KMKE 301452Z 3015/3118 02014G24KT 6SM -SHRA BR OVC005
     FM301800 02020G28KT 3SM RA OVC008
     FM302100 02020G31KT 5SM -RA OVC025
     FM302300 02020G30KT P6SM OVC040
     FM310600 03018G26KT P6SM SCT150=



000
FTUS43 KMKX 301452 AAA
TAFMSN
TAF AMD
KMSN 301452Z 3015/3112 05014G21KT 5SM -SHRA BR OVC008
     FM301600 04014G22KT 6SM -SHRA BR OVC008
     FM301800 04013G20KT P6SM OVC015
     FM302000 04013G20KT P6SM OVC035
     FM310200 04009KT P6SM SCT150=



000
FTUS43 KMKX 301452 AAB
TAFMKE
TAF AMD
KMKE 301452Z 3015/3118 02014G24KT 6SM -SHRA BR OVC005
     FM301800 02020G28KT 3SM RA OVC008
     FM302100 02020G31KT 5SM -RA OVC025
     FM302300 02020G30KT P6SM OVC040
     FM310600 03018G26KT P6SM SCT150=



000
FTUS43 KMKX 301452 AAA
TAFMSN
TAF AMD
KMSN 301452Z 3015/3112 05014G21KT 5SM -SHRA BR OVC008
     FM301600 04014G22KT 6SM -SHRA BR OVC008
     FM301800 04013G20KT P6SM OVC015
     FM302000 04013G20KT P6SM OVC035
     FM310200 04009KT P6SM SCT150=



000
FTUS43 KMKX 301452 AAB
TAFMKE
TAF AMD
KMKE 301452Z 3015/3118 02014G24KT 6SM -SHRA BR OVC005
     FM301800 02020G28KT 3SM RA OVC008
     FM302100 02020G31KT 5SM -RA OVC025
     FM302300 02020G30KT P6SM OVC040
     FM310600 03018G26KT P6SM SCT150=



000
FTUS43 KMKX 301452 AAA
TAFMSN
TAF AMD
KMSN 301452Z 3015/3112 05014G21KT 5SM -SHRA BR OVC008
     FM301600 04014G22KT 6SM -SHRA BR OVC008
     FM301800 04013G20KT P6SM OVC015
     FM302000 04013G20KT P6SM OVC035
     FM310200 04009KT P6SM SCT150=



000
FTUS43 KMKX 301130 AAA
TAFMKE
TAF AMD
KMKE 301130Z 3012/3118 04014G21KT 5SM -RA BR BKN003 OVC007
     FM301400 02014G24KT 3SM SHRA OVC005
     FM301800 02020G28KT 3SM RA OVC008
     FM302100 02020G31KT 5SM -RA OVC025
     FM302300 02020G30KT P6SM OVC040
     FM310600 03018G26KT P6SM SCT150=



000
FTUS43 KMKX 301130 AAA
TAFMKE
TAF AMD
KMKE 301130Z 3012/3118 04014G21KT 5SM -RA BR BKN003 OVC007
     FM301400 02014G24KT 3SM SHRA OVC005
     FM301800 02020G28KT 3SM RA OVC008
     FM302100 02020G31KT 5SM -RA OVC025
     FM302300 02020G30KT P6SM OVC040
     FM310600 03018G26KT P6SM SCT150=



000
FTUS43 KMKX 301130 AAA
TAFMKE
TAF AMD
KMKE 301130Z 3012/3118 04014G21KT 5SM -RA BR BKN003 OVC007
     FM301400 02014G24KT 3SM SHRA OVC005
     FM301800 02020G28KT 3SM RA OVC008
     FM302100 02020G31KT 5SM -RA OVC025
     FM302300 02020G30KT P6SM OVC040
     FM310600 03018G26KT P6SM SCT150=



000
FTUS43 KMKX 301130 AAA
TAFMKE
TAF AMD
KMKE 301130Z 3012/3118 04014G21KT 5SM -RA BR BKN003 OVC007
     FM301400 02014G24KT 3SM SHRA OVC005
     FM301800 02020G28KT 3SM RA OVC008
     FM302100 02020G31KT 5SM -RA OVC025
     FM302300 02020G30KT P6SM OVC040
     FM310600 03018G26KT P6SM SCT150=



000
FTUS43 KMKX 301122
TAFMSN
TAF
KMSN 301122Z 3012/3112 VRB05KT P6SM VCSH BKN012 OVC035
     FM301300 02008KT 6SM -SHRA OVC008
     FM301500 04013KT 5SM SHRA OVC008
     FM301600 04013KT P6SM -SHRA OVC008
     FM301800 04013G20KT P6SM OVC015
     FM302000 04013G20KT P6SM OVC035
     FM310200 04009KT P6SM SCT150=



000
FTUS43 KMKX 301122
TAFMKE
TAF
KMKE 301122Z 3012/3118 36008KT 5SM -SHRA OVC006
     FM301400 02014KT 3SM SHRA OVC005
     FM301800 02020G28KT 3SM RA OVC008
     FM302100 02020G31KT 5SM -RA OVC025
     FM302300 02020G30KT P6SM OVC040
     FM310600 03018G26KT P6SM SCT150=



000
FTUS43 KMKX 301122
TAFMKE
TAF
KMKE 301122Z 3012/3118 36008KT 5SM -SHRA OVC006
     FM301400 02014KT 3SM SHRA OVC005
     FM301800 02020G28KT 3SM RA OVC008
     FM302100 02020G31KT 5SM -RA OVC025
     FM302300 02020G30KT P6SM OVC040
     FM310600 03018G26KT P6SM SCT150=



000
FTUS43 KMKX 301122
TAFMSN
TAF
KMSN 301122Z 3012/3112 VRB05KT P6SM VCSH BKN012 OVC035
     FM301300 02008KT 6SM -SHRA OVC008
     FM301500 04013KT 5SM SHRA OVC008
     FM301600 04013KT P6SM -SHRA OVC008
     FM301800 04013G20KT P6SM OVC015
     FM302000 04013G20KT P6SM OVC035
     FM310200 04009KT P6SM SCT150=



000
FTUS43 KMKX 301122
TAFMSN
TAF
KMSN 301122Z 3012/3112 VRB05KT P6SM VCSH BKN012 OVC035
     FM301300 02008KT 6SM -SHRA OVC008
     FM301500 04013KT 5SM SHRA OVC008
     FM301600 04013KT P6SM -SHRA OVC008
     FM301800 04013G20KT P6SM OVC015
     FM302000 04013G20KT P6SM OVC035
     FM310200 04009KT P6SM SCT150=



000
FTUS43 KMKX 301122
TAFMKE
TAF
KMKE 301122Z 3012/3118 36008KT 5SM -SHRA OVC006
     FM301400 02014KT 3SM SHRA OVC005
     FM301800 02020G28KT 3SM RA OVC008
     FM302100 02020G31KT 5SM -RA OVC025
     FM302300 02020G30KT P6SM OVC040
     FM310600 03018G26KT P6SM SCT150=



000
FTUS43 KMKX 300824 AAA
TAFMKE
TAF AMD
KMKE 300824Z 3008/3112 00000KT P6SM VCSH BKN025 BKN070
     FM300900 25008KT 5SM -SHRA OVC015
     FM301200 01010KT 3SM -SHRA BR OVC008
     FM301400 02016G28KT 3SM -SHRA BR OVC010
     FM310100 03019G27KT P6SM SCT120
     FM310700 03015KT P6SM SCT200=



000
FTUS43 KMKX 300749 AAA
TAFMSN
TAF AMD
KMSN 300749Z 3008/3106 12004KT P6SM FEW007 OVC020
      TEMPO 3008/3010 BKN013
     FM301000 35008KT 5SM SHRA SCT006 OVC013
     FM301300 02009KT 3SM -SHRA OVC008
     FM301600 03012G20KT P6SM OVC010
     FM302300 03011KT P6SM SCT070
     FM310200 06009KT P6SM SCT200=



000
FTUS43 KMKX 300749 AAA
TAFMSN
TAF AMD
KMSN 300749Z 3008/3106 12004KT P6SM FEW007 OVC020
      TEMPO 3008/3010 BKN013
     FM301000 35008KT 5SM SHRA SCT006 OVC013
     FM301300 02009KT 3SM -SHRA OVC008
     FM301600 03012G20KT P6SM OVC010
     FM302300 03011KT P6SM SCT070
     FM310200 06009KT P6SM SCT200=



000
FTUS43 KMKX 300520
TAFMKE
TAF
KMKE 300520Z 3006/3112 24008KT 6SM -SHRA SCT035 OVC070
     FM300900 25008KT 5SM -SHRA OVC015
     FM301200 01010KT 3SM -SHRA BR OVC008
     FM301400 02016G28KT 3SM -SHRA BR OVC010
     FM310100 03019G27KT P6SM SCT120
     FM310700 03015KT P6SM SCT200=



000
FTUS43 KMKX 300520
TAFMKE
TAF
KMKE 300520Z 3006/3112 24008KT 6SM -SHRA SCT035 OVC070
     FM300900 25008KT 5SM -SHRA OVC015
     FM301200 01010KT 3SM -SHRA BR OVC008
     FM301400 02016G28KT 3SM -SHRA BR OVC010
     FM310100 03019G27KT P6SM SCT120
     FM310700 03015KT P6SM SCT200=



000
FTUS43 KMKX 300520
TAFMSN
TAF
KMSN 300520Z 3006/3106 03005KT 6SM -SHRA SCT013 OVC060
      TEMPO 3006/3010 BKN013
     FM301000 35008KT 5SM SHRA OVC013
     FM301300 02009KT 3SM -SHRA OVC008
     FM301600 03012G20KT P6SM OVC010
     FM302300 03011KT P6SM SCT070
     FM310200 06009KT P6SM SCT200=



000
FTUS43 KMKX 300520
TAFMSN
TAF
KMSN 300520Z 3006/3106 03005KT 6SM -SHRA SCT013 OVC060
      TEMPO 3006/3010 BKN013
     FM301000 35008KT 5SM SHRA OVC013
     FM301300 02009KT 3SM -SHRA OVC008
     FM301600 03012G20KT P6SM OVC010
     FM302300 03011KT P6SM SCT070
     FM310200 06009KT P6SM SCT200=



000
FTUS43 KMKX 300303 AAB
TAFMKE
TAF AMD
KMKE 300303Z 3003/3106 24007KT P6SM VCSH SCT050 BKN090
     FM300600 25005KT P6SM -SHRA VCTS SCT035CB OVC060
     FM301100 34007KT 5SM -SHRA BR OVC015
     FM301300 02013KT 5SM -SHRA BR OVC008
     FM301500 02018G27KT 5SM -SHRA BR OVC005
     FM302000 02019G28KT P6SM OVC008
     FM302200 02019G28KT P6SM BKN030
     FM310200 03018G27KT P6SM BKN050=



000
FTUS43 KMKX 300303 AAB
TAFMKE
TAF AMD
KMKE 300303Z 3003/3106 24007KT P6SM VCSH SCT050 BKN090
     FM300600 25005KT P6SM -SHRA VCTS SCT035CB OVC060
     FM301100 34007KT 5SM -SHRA BR OVC015
     FM301300 02013KT 5SM -SHRA BR OVC008
     FM301500 02018G27KT 5SM -SHRA BR OVC005
     FM302000 02019G28KT P6SM OVC008
     FM302200 02019G28KT P6SM BKN030
     FM310200 03018G27KT P6SM BKN050=



000
FTUS43 KMKX 300303 AAB
TAFMKE
TAF AMD
KMKE 300303Z 3003/3106 24007KT P6SM VCSH SCT050 BKN090
     FM300600 25005KT P6SM -SHRA VCTS SCT035CB OVC060
     FM301100 34007KT 5SM -SHRA BR OVC015
     FM301300 02013KT 5SM -SHRA BR OVC008
     FM301500 02018G27KT 5SM -SHRA BR OVC005
     FM302000 02019G28KT P6SM OVC008
     FM302200 02019G28KT P6SM BKN030
     FM310200 03018G27KT P6SM BKN050=



000
FTUS43 KMKX 300303 AAB
TAFMKE
TAF AMD
KMKE 300303Z 3003/3106 24007KT P6SM VCSH SCT050 BKN090
     FM300600 25005KT P6SM -SHRA VCTS SCT035CB OVC060
     FM301100 34007KT 5SM -SHRA BR OVC015
     FM301300 02013KT 5SM -SHRA BR OVC008
     FM301500 02018G27KT 5SM -SHRA BR OVC005
     FM302000 02019G28KT P6SM OVC008
     FM302200 02019G28KT P6SM BKN030
     FM310200 03018G27KT P6SM BKN050=



000
FTUS43 KMKX 300251 AAA
TAFMSN
TAF AMD
KMSN 300251Z 3003/3024 21005KT P6SM -SHRA VCTS OVC050CB
     FM300340 33012KT P6SM -SHRA VCTS SCT035CB OVC050
     FM300400 VRB04KT P6SM -SHRA VCTS SCT035CB OVC050
     FM300600 26005KT 5SM -SHRA VCTS SCT035CB OVC060
     FM300900 32004KT 6SM -SHRA OVC015
     FM301100 01008KT 5SM -SHRA OVC008
     FM301600 03012G20KT P6SM OVC015
     FM301900 03012KT P6SM BKN035
     FM302300 03011KT P6SM SCT070=



000
FTUS43 KMKX 300251 AAA
TAFMSN
TAF AMD
KMSN 300251Z 3003/3024 21005KT P6SM -SHRA VCTS OVC050CB
     FM300340 33012KT P6SM -SHRA VCTS SCT035CB OVC050
     FM300400 VRB04KT P6SM -SHRA VCTS SCT035CB OVC050
     FM300600 26005KT 5SM -SHRA VCTS SCT035CB OVC060
     FM300900 32004KT 6SM -SHRA OVC015
     FM301100 01008KT 5SM -SHRA OVC008
     FM301600 03012G20KT P6SM OVC015
     FM301900 03012KT P6SM BKN035
     FM302300 03011KT P6SM SCT070=



000
FTUS43 KMKX 300054 AAA
TAFMKE
TAF AMD
KMKE 300054Z 3001/3106 21009KT P6SM VCSH SCT050 BKN090
     FM300400 21008KT P6SM -SHRA VCTS SCT035CB OVC060
     FM300600 24008KT P6SM -SHRA OVC060
     FM301100 34007KT 5SM -SHRA BR OVC015
     FM301300 02013KT 5SM -SHRA BR OVC008
     FM301500 02018G27KT 5SM -SHRA BR OVC005
     FM302000 02019G28KT P6SM OVC008
     FM302200 02019G28KT P6SM BKN030
     FM310200 03018G27KT P6SM BKN050=



000
FTUS43 KMKX 300054 AAA
TAFMKE
TAF AMD
KMKE 300054Z 3001/3106 21009KT P6SM VCSH SCT050 BKN090
     FM300400 21008KT P6SM -SHRA VCTS SCT035CB OVC060
     FM300600 24008KT P6SM -SHRA OVC060
     FM301100 34007KT 5SM -SHRA BR OVC015
     FM301300 02013KT 5SM -SHRA BR OVC008
     FM301500 02018G27KT 5SM -SHRA BR OVC005
     FM302000 02019G28KT P6SM OVC008
     FM302200 02019G28KT P6SM BKN030
     FM310200 03018G27KT P6SM BKN050=



000
FTUS43 KMKX 292344
TAFMKE
TAF
KMKE 292344Z 3000/3106 21009KT P6SM VCTS BKN050CB
     FM300400 21008KT P6SM -SHRA VCTS SCT035CB OVC060
     FM300600 24008KT P6SM -SHRA OVC060
     FM301100 34007KT 5SM -SHRA BR OVC015
     FM301300 02013KT 5SM -SHRA BR OVC008
     FM301500 02018G27KT 5SM -SHRA BR OVC005
     FM302000 02019G28KT P6SM OVC008
     FM302200 02019G28KT P6SM BKN030
     FM310200 03018G27KT P6SM BKN050=



000
FTUS43 KMKX 292344
TAFMSN
TAF
KMSN 292344Z 3000/3024 21006KT P6SM VCTS SCT035 BKN050CB
     FM300300 23005KT P6SM -SHRA VCTS OVC050CB
     FM300600 26005KT 5SM -SHRA VCTS SCT035CB OVC060
     FM300900 32004KT 6SM -SHRA OVC015
     FM301100 01008KT 5SM -SHRA OVC008
     FM301600 03012G20KT P6SM OVC015
     FM301900 03012KT P6SM BKN035
     FM302300 03011KT P6SM SCT070=



000
FTUS43 KMKX 292344
TAFMKE
TAF
KMKE 292344Z 3000/3106 21009KT P6SM VCTS BKN050CB
     FM300400 21008KT P6SM -SHRA VCTS SCT035CB OVC060
     FM300600 24008KT P6SM -SHRA OVC060
     FM301100 34007KT 5SM -SHRA BR OVC015
     FM301300 02013KT 5SM -SHRA BR OVC008
     FM301500 02018G27KT 5SM -SHRA BR OVC005
     FM302000 02019G28KT P6SM OVC008
     FM302200 02019G28KT P6SM BKN030
     FM310200 03018G27KT P6SM BKN050=



000
FTUS43 KMKX 292344
TAFMSN
TAF
KMSN 292344Z 3000/3024 21006KT P6SM VCTS SCT035 BKN050CB
     FM300300 23005KT P6SM -SHRA VCTS OVC050CB
     FM300600 26005KT 5SM -SHRA VCTS SCT035CB OVC060
     FM300900 32004KT 6SM -SHRA OVC015
     FM301100 01008KT 5SM -SHRA OVC008
     FM301600 03012G20KT P6SM OVC015
     FM301900 03012KT P6SM BKN035
     FM302300 03011KT P6SM SCT070=



000
FTUS43 KMKX 292111 AAA
TAFMKE
TAF AMD
KMKE 292111Z 2921/3024 17011KT P6SM VCTS BKN050CB
     FM292300 18008KT P6SM VCTS BKN050CB
     FM300400 21008KT P6SM SHRA VCTS OVC045CB
     FM300600 26008KT P6SM SHRA VCTS OVC040CB
     FM301200 01010G17KT 5SM SHRA BR OVC008
     FM301400 02016G24KT 5SM SHRA BR OVC008
     FM301700 02020G28KT P6SM -SHRA OVC015
     FM302000 02019G28KT P6SM OVC035=



000
FTUS43 KMKX 292111 AAA
TAFMKE
TAF AMD
KMKE 292111Z 2921/3024 17011KT P6SM VCTS BKN050CB
     FM292300 18008KT P6SM VCTS BKN050CB
     FM300400 21008KT P6SM SHRA VCTS OVC045CB
     FM300600 26008KT P6SM SHRA VCTS OVC040CB
     FM301200 01010G17KT 5SM SHRA BR OVC008
     FM301400 02016G24KT 5SM SHRA BR OVC008
     FM301700 02020G28KT P6SM -SHRA OVC015
     FM302000 02019G28KT P6SM OVC035=



000
FTUS43 KMKX 292111 AAA
TAFMSN
TAF AMD
KMSN 292111Z 2921/3018 19009KT P6SM VCTS OVC050CB
     FM300100 22006KT P6SM SHRA VCTS BKN050CB
     FM300600 26005KT P6SM SHRA VCTS OVC025CB
     FM300900 32004KT P6SM SHRA VCTS OVC010CB
     FM301200 01008KT 5SM -SHRA BR OVC008
     FM301500 03012G20KT P6SM -SHRA OVC008
     FM301700 03012G20KT P6SM OVC015=



000
FTUS43 KMKX 292111 AAA
TAFMSN
TAF AMD
KMSN 292111Z 2921/3018 19009KT P6SM VCTS OVC050CB
     FM300100 22006KT P6SM SHRA VCTS BKN050CB
     FM300600 26005KT P6SM SHRA VCTS OVC025CB
     FM300900 32004KT P6SM SHRA VCTS OVC010CB
     FM301200 01008KT 5SM -SHRA BR OVC008
     FM301500 03012G20KT P6SM -SHRA OVC008
     FM301700 03012G20KT P6SM OVC015=



000
FTUS43 KMKX 291747
TAFMSN
TAF
KMSN 291747Z 2918/3018 19009KT P6SM VCTS OVC050CB
     FM300100 22006KT P6SM SHRA VCTS BKN050CB
     FM300600 26005KT P6SM SHRA VCTS OVC025CB
     FM300900 32004KT P6SM SHRA VCTS OVC010CB
     FM301200 01008KT 5SM -SHRA BR OVC008
     FM301500 03012G20KT P6SM -SHRA OVC008
     FM301700 03012G20KT P6SM OVC015=



000
FTUS43 KMKX 291747
TAFMKE
TAF
KMKE 291747Z 2918/3024 17011KT P6SM VCTS BKN050CB
     FM292300 18008KT P6SM VCTS BKN050CB
     FM300400 21008KT P6SM SHRA VCTS OVC045CB
     FM300600 26008KT P6SM SHRA VCTS OVC040CB
     FM301200 01010G17KT 5SM SHRA BR OVC008
     FM301400 02016G24KT 5SM SHRA BR OVC008
     FM301700 02020G28KT P6SM -SHRA OVC015
     FM302000 02019G28KT P6SM OVC035=



000
FTUS43 KMKX 291747
TAFMKE
TAF
KMKE 291747Z 2918/3024 17011KT P6SM VCTS BKN050CB
     FM292300 18008KT P6SM VCTS BKN050CB
     FM300400 21008KT P6SM SHRA VCTS OVC045CB
     FM300600 26008KT P6SM SHRA VCTS OVC040CB
     FM301200 01010G17KT 5SM SHRA BR OVC008
     FM301400 02016G24KT 5SM SHRA BR OVC008
     FM301700 02020G28KT P6SM -SHRA OVC015
     FM302000 02019G28KT P6SM OVC035=



000
FTUS43 KMKX 291747
TAFMSN
TAF
KMSN 291747Z 2918/3018 19009KT P6SM VCTS OVC050CB
     FM300100 22006KT P6SM SHRA VCTS BKN050CB
     FM300600 26005KT P6SM SHRA VCTS OVC025CB
     FM300900 32004KT P6SM SHRA VCTS OVC010CB
     FM301200 01008KT 5SM -SHRA BR OVC008
     FM301500 03012G20KT P6SM -SHRA OVC008
     FM301700 03012G20KT P6SM OVC015=



000
FTUS43 KMKX 291747
TAFMKE
TAF
KMKE 291747Z 2918/3024 17011KT P6SM VCTS BKN050CB
     FM292300 18008KT P6SM VCTS BKN050CB
     FM300400 21008KT P6SM SHRA VCTS OVC045CB
     FM300600 26008KT P6SM SHRA VCTS OVC040CB
     FM301200 01010G17KT 5SM SHRA BR OVC008
     FM301400 02016G24KT 5SM SHRA BR OVC008
     FM301700 02020G28KT P6SM -SHRA OVC015
     FM302000 02019G28KT P6SM OVC035=



000
FTUS43 KMKX 291747
TAFMSN
TAF
KMSN 291747Z 2918/3018 19009KT P6SM VCTS OVC050CB
     FM300100 22006KT P6SM SHRA VCTS BKN050CB
     FM300600 26005KT P6SM SHRA VCTS OVC025CB
     FM300900 32004KT P6SM SHRA VCTS OVC010CB
     FM301200 01008KT 5SM -SHRA BR OVC008
     FM301500 03012G20KT P6SM -SHRA OVC008
     FM301700 03012G20KT P6SM OVC015=



000
FTUS43 KMKX 291430 AAA
TAFMSN
TAF AMD
KMSN 291430Z 2915/3012 17006KT P6SM SCT050 BKN120
     FM291800 20010KT P6SM VCTS BKN050CB
     FM300400 26004KT P6SM VCTS BKN050CB
     FM300600 28005KT P6SM SHRA OVC020
     FM300900 35005KT 5SM SHRA BR OVC010=



000
FTUS43 KMKX 291430 AAA
TAFMKE
TAF AMD
KMKE 291430Z 2915/3018 20010KT P6SM SCT050 BKN120
     FM291800 16011KT P6SM VCTS BKN050CB
     FM300300 20006KT P6SM VCTS BKN050CB
     FM300700 26006KT P6SM SHRA BKN035
     FM300900 30005KT 5SM SHRA BR OVC008
     FM301100 36009KT 5SM SHRA BR OVC008
     FM301500 02019G27KT 2SM BR OVC008=



000
FTUS43 KMKX 291430 AAA
TAFMKE
TAF AMD
KMKE 291430Z 2915/3018 20010KT P6SM SCT050 BKN120
     FM291800 16011KT P6SM VCTS BKN050CB
     FM300300 20006KT P6SM VCTS BKN050CB
     FM300700 26006KT P6SM SHRA BKN035
     FM300900 30005KT 5SM SHRA BR OVC008
     FM301100 36009KT 5SM SHRA BR OVC008
     FM301500 02019G27KT 2SM BR OVC008=



000
FTUS43 KMKX 291430 AAA
TAFMSN
TAF AMD
KMSN 291430Z 2915/3012 17006KT P6SM SCT050 BKN120
     FM291800 20010KT P6SM VCTS BKN050CB
     FM300400 26004KT P6SM VCTS BKN050CB
     FM300600 28005KT P6SM SHRA OVC020
     FM300900 35005KT 5SM SHRA BR OVC010=



000
FTUS43 KMKX 291140
TAFMKE
TAF
KMKE 291140Z 2912/3018 20007KT P6SM SCT050 OVC200
     FM291500 18009KT P6SM VCTS SCT050 BKN090CB
     FM292000 15011KT P6SM VCTS BKN050CB
     FM300300 20006KT P6SM VCTS BKN050CB
     FM300700 26006KT P6SM SHRA BKN035
     FM300900 30005KT 5SM SHRA BR OVC008
     FM301100 36009KT 5SM SHRA BR OVC008
     FM301500 02019G27KT 2SM BR OVC008=



000
FTUS43 KMKX 291140
TAFMSN
TAF
KMSN 291140Z 2912/3012 24005KT P6SM OVC045
      TEMPO 2912/2913 -SHRA
     FM291500 19010KT P6SM VCTS BKN050CB
     FM300400 26004KT P6SM VCTS BKN050CB
     FM300600 28005KT P6SM SHRA OVC020
     FM300900 35005KT 5SM SHRA BR OVC010=



000
FTUS43 KMKX 291140
TAFMKE
TAF
KMKE 291140Z 2912/3018 20007KT P6SM SCT050 OVC200
     FM291500 18009KT P6SM VCTS SCT050 BKN090CB
     FM292000 15011KT P6SM VCTS BKN050CB
     FM300300 20006KT P6SM VCTS BKN050CB
     FM300700 26006KT P6SM SHRA BKN035
     FM300900 30005KT 5SM SHRA BR OVC008
     FM301100 36009KT 5SM SHRA BR OVC008
     FM301500 02019G27KT 2SM BR OVC008=



000
FTUS43 KMKX 291140
TAFMSN
TAF
KMSN 291140Z 2912/3012 24005KT P6SM OVC045
      TEMPO 2912/2913 -SHRA
     FM291500 19010KT P6SM VCTS BKN050CB
     FM300400 26004KT P6SM VCTS BKN050CB
     FM300600 28005KT P6SM SHRA OVC020
     FM300900 35005KT 5SM SHRA BR OVC010=



000
FTUS43 KMKX 291140
TAFMKE
TAF
KMKE 291140Z 2912/3018 20007KT P6SM SCT050 OVC200
     FM291500 18009KT P6SM VCTS SCT050 BKN090CB
     FM292000 15011KT P6SM VCTS BKN050CB
     FM300300 20006KT P6SM VCTS BKN050CB
     FM300700 26006KT P6SM SHRA BKN035
     FM300900 30005KT 5SM SHRA BR OVC008
     FM301100 36009KT 5SM SHRA BR OVC008
     FM301500 02019G27KT 2SM BR OVC008=



000
FTUS43 KMKX 291140
TAFMSN
TAF
KMSN 291140Z 2912/3012 24005KT P6SM OVC045
      TEMPO 2912/2913 -SHRA
     FM291500 19010KT P6SM VCTS BKN050CB
     FM300400 26004KT P6SM VCTS BKN050CB
     FM300600 28005KT P6SM SHRA OVC020
     FM300900 35005KT 5SM SHRA BR OVC010=



000
FTUS43 KMKX 291140
TAFMSN
TAF
KMSN 291140Z 2912/3012 24005KT P6SM OVC045
      TEMPO 2912/2913 -SHRA
     FM291500 19010KT P6SM VCTS BKN050CB
     FM300400 26004KT P6SM VCTS BKN050CB
     FM300600 28005KT P6SM SHRA OVC020
     FM300900 35005KT 5SM SHRA BR OVC010=



000
FTUS43 KMKX 291140
TAFMKE
TAF
KMKE 291140Z 2912/3018 20007KT P6SM SCT050 OVC200
     FM291500 18009KT P6SM VCTS SCT050 BKN090CB
     FM292000 15011KT P6SM VCTS BKN050CB
     FM300300 20006KT P6SM VCTS BKN050CB
     FM300700 26006KT P6SM SHRA BKN035
     FM300900 30005KT 5SM SHRA BR OVC008
     FM301100 36009KT 5SM SHRA BR OVC008
     FM301500 02019G27KT 2SM BR OVC008=



000
FTUS43 KMKX 291117 AAB
TAFMSN
TAF AMD
KMSN 291117Z 2911/3006 18008KT P6SM SCT035 OVC050
      TEMPO 2911/2912 2SM +SHRA BKN035
     FM291500 19009KT P6SM VCSH BKN090
     FM291600 19009KT P6SM VCTS SCT035 BKN090CB
     FM291800 20010G17KT P6SM BKN040
     FM300000 22007KT P6SM SHRA OVC040=



000
FTUS43 KMKX 291117 AAB
TAFMSN
TAF AMD
KMSN 291117Z 2911/3006 18008KT P6SM SCT035 OVC050
      TEMPO 2911/2912 2SM +SHRA BKN035
     FM291500 19009KT P6SM VCSH BKN090
     FM291600 19009KT P6SM VCTS SCT035 BKN090CB
     FM291800 20010G17KT P6SM BKN040
     FM300000 22007KT P6SM SHRA OVC040=



000
FTUS43 KMKX 291037 AAA
TAFMKE
TAF AMD
KMKE 291037Z 2911/3012 15004KT P6SM FEW070 BKN150
     FM291500 18009KT P6SM VCTS SCT035 BKN070CB
     FM291800 18012KT P6SM SCT040 BKN100
     FM300000 21009KT P6SM SHRA VCTS BKN050CB
     FM300900 32004KT 3SM SHRA OVC010
     FM301100 36011KT 3SM SHRA OVC008=



000
FTUS43 KMKX 291037 AAA
TAFMKE
TAF AMD
KMKE 291037Z 2911/3012 15004KT P6SM FEW070 BKN150
     FM291500 18009KT P6SM VCTS SCT035 BKN070CB
     FM291800 18012KT P6SM SCT040 BKN100
     FM300000 21009KT P6SM SHRA VCTS BKN050CB
     FM300900 32004KT 3SM SHRA OVC010
     FM301100 36011KT 3SM SHRA OVC008=



000
FTUS43 KMKX 290831 AAA
TAFMSN
TAF AMD
KMSN 290831Z 2909/3006 18008KT P6SM -SHRA SCT035 OVC070
      TEMPO 2911/2915 3SM SHRA BKN035
     FM291500 19009KT P6SM VCSH BKN090
     FM291600 19009KT P6SM VCTS SCT035 BKN090CB
     FM291800 20010G17KT P6SM BKN040
     FM300000 22007KT P6SM SHRA OVC040=



000
FTUS43 KMKX 290831 AAA
TAFMSN
TAF AMD
KMSN 290831Z 2909/3006 18008KT P6SM -SHRA SCT035 OVC070
      TEMPO 2911/2915 3SM SHRA BKN035
     FM291500 19009KT P6SM VCSH BKN090
     FM291600 19009KT P6SM VCTS SCT035 BKN090CB
     FM291800 20010G17KT P6SM BKN040
     FM300000 22007KT P6SM SHRA OVC040=



000
FTUS43 KMKX 290520
TAFMKE
TAF
KMKE 290520Z 2906/3012 14005KT P6SM BKN200
     FM291000 16004KT P6SM VCSH BKN050
     FM291400 18008KT P6SM VCSH OVC080
     FM291500 18009KT P6SM VCTS SCT035 BKN070CB
     FM291800 18012KT P6SM SCT040 BKN100
     FM300000 21009KT P6SM SHRA VCTS BKN050CB
     FM300900 32004KT 3SM SHRA OVC010
     FM301100 36011KT 3SM SHRA OVC008=



000
FTUS43 KMKX 290520
TAFMSN
TAF
KMSN 290520Z 2906/3006 14006KT P6SM BKN200
     FM290900 16004KT P6SM VCSH BKN100
     FM291300 18006KT P6SM -SHRA VCTS SCT025 OVC080CB
     FM291500 19009KT P6SM VCSH BKN090
     FM291600 19009KT P6SM VCTS SCT035 BKN090CB
     FM291800 20010G17KT P6SM BKN040
     FM300000 22007KT P6SM SHRA OVC040=



000
FTUS43 KMKX 290520
TAFMKE
TAF
KMKE 290520Z 2906/3012 14005KT P6SM BKN200
     FM291000 16004KT P6SM VCSH BKN050
     FM291400 18008KT P6SM VCSH OVC080
     FM291500 18009KT P6SM VCTS SCT035 BKN070CB
     FM291800 18012KT P6SM SCT040 BKN100
     FM300000 21009KT P6SM SHRA VCTS BKN050CB
     FM300900 32004KT 3SM SHRA OVC010
     FM301100 36011KT 3SM SHRA OVC008=



000
FTUS43 KMKX 290520
TAFMKE
TAF
KMKE 290520Z 2906/3012 14005KT P6SM BKN200
     FM291000 16004KT P6SM VCSH BKN050
     FM291400 18008KT P6SM VCSH OVC080
     FM291500 18009KT P6SM VCTS SCT035 BKN070CB
     FM291800 18012KT P6SM SCT040 BKN100
     FM300000 21009KT P6SM SHRA VCTS BKN050CB
     FM300900 32004KT 3SM SHRA OVC010
     FM301100 36011KT 3SM SHRA OVC008=



000
FTUS43 KMKX 290520
TAFMKE
TAF
KMKE 290520Z 2906/3012 14005KT P6SM BKN200
     FM291000 16004KT P6SM VCSH BKN050
     FM291400 18008KT P6SM VCSH OVC080
     FM291500 18009KT P6SM VCTS SCT035 BKN070CB
     FM291800 18012KT P6SM SCT040 BKN100
     FM300000 21009KT P6SM SHRA VCTS BKN050CB
     FM300900 32004KT 3SM SHRA OVC010
     FM301100 36011KT 3SM SHRA OVC008=



000
FTUS43 KMKX 290520
TAFMSN
TAF
KMSN 290520Z 2906/3006 14006KT P6SM BKN200
     FM290900 16004KT P6SM VCSH BKN100
     FM291300 18006KT P6SM -SHRA VCTS SCT025 OVC080CB
     FM291500 19009KT P6SM VCSH BKN090
     FM291600 19009KT P6SM VCTS SCT035 BKN090CB
     FM291800 20010G17KT P6SM BKN040
     FM300000 22007KT P6SM SHRA OVC040=



000
FTUS43 KMKX 290520
TAFMSN
TAF
KMSN 290520Z 2906/3006 14006KT P6SM BKN200
     FM290900 16004KT P6SM VCSH BKN100
     FM291300 18006KT P6SM -SHRA VCTS SCT025 OVC080CB
     FM291500 19009KT P6SM VCSH BKN090
     FM291600 19009KT P6SM VCTS SCT035 BKN090CB
     FM291800 20010G17KT P6SM BKN040
     FM300000 22007KT P6SM SHRA OVC040=



000
FTUS43 KMKX 282329
TAFMSN
TAF
KMSN 282329Z 2900/2924 17009KT P6SM FEW070 SCT250
     FM290700 15005KT P6SM SCT060 BKN150
     FM290800 16005KT P6SM VCTS SCT025 BKN050CB
     FM291200 17006KT P6SM -SHRA OVC012
     FM291400 18007KT P6SM SCT030 OVC060
     FM291700 20011KT P6SM VCTS BKN035CB
     FM292100 21010KT P6SM TSRA OVC040CB=



000
FTUS43 KMKX 282329
TAFMSN
TAF
KMSN 282329Z 2900/2924 17009KT P6SM FEW070 SCT250
     FM290700 15005KT P6SM SCT060 BKN150
     FM290800 16005KT P6SM VCTS SCT025 BKN050CB
     FM291200 17006KT P6SM -SHRA OVC012
     FM291400 18007KT P6SM SCT030 OVC060
     FM291700 20011KT P6SM VCTS BKN035CB
     FM292100 21010KT P6SM TSRA OVC040CB=



000
FTUS43 KMKX 282329
TAFMKE
TAF
KMKE 282329Z 2900/3006 14008KT P6SM SCT250
     FM290900 16004KT P6SM BKN050
     FM291000 16004KT P6SM VCTS BKN050CB
     FM291100 17005KT P6SM BKN080
     FM291400 18009KT P6SM SCT030 BKN080
     FM291900 19011KT P6SM SHRA VCTS BKN035CB
     FM300500 22007KT P6SM TSRA BKN050CB=



000
FTUS43 KMKX 282329
TAFMKE
TAF
KMKE 282329Z 2900/3006 14008KT P6SM SCT250
     FM290900 16004KT P6SM BKN050
     FM291000 16004KT P6SM VCTS BKN050CB
     FM291100 17005KT P6SM BKN080
     FM291400 18009KT P6SM SCT030 BKN080
     FM291900 19011KT P6SM SHRA VCTS BKN035CB
     FM300500 22007KT P6SM TSRA BKN050CB=



000
FTUS43 KMKX 282329
TAFMKE
TAF
KMKE 282329Z 2900/3006 14008KT P6SM SCT250
     FM290900 16004KT P6SM BKN050
     FM291000 16004KT P6SM VCTS BKN050CB
     FM291100 17005KT P6SM BKN080
     FM291400 18009KT P6SM SCT030 BKN080
     FM291900 19011KT P6SM SHRA VCTS BKN035CB
     FM300500 22007KT P6SM TSRA BKN050CB=



000
FTUS43 KMKX 282329
TAFMSN
TAF
KMSN 282329Z 2900/2924 17009KT P6SM FEW070 SCT250
     FM290700 15005KT P6SM SCT060 BKN150
     FM290800 16005KT P6SM VCTS SCT025 BKN050CB
     FM291200 17006KT P6SM -SHRA OVC012
     FM291400 18007KT P6SM SCT030 OVC060
     FM291700 20011KT P6SM VCTS BKN035CB
     FM292100 21010KT P6SM TSRA OVC040CB=



000
FTUS43 KMKX 281940 AAA
TAFMKE
TAF AMD
KMKE 281940Z 2820/2924 14013KT P6SM FEW050 BKN250
     FM290100 15007KT P6SM BKN250
     FM291100 17008KT P6SM VCSH SCT050 BKN100
     FM291700 19012G20KT P6SM SCT050 BKN100
     FM292000 16010KT P6SM VCSH SCT050 OVC100=



000
FTUS43 KMKX 281940 AAA
TAFMKE
TAF AMD
KMKE 281940Z 2820/2924 14013KT P6SM FEW050 BKN250
     FM290100 15007KT P6SM BKN250
     FM291100 17008KT P6SM VCSH SCT050 BKN100
     FM291700 19012G20KT P6SM SCT050 BKN100
     FM292000 16010KT P6SM VCSH SCT050 OVC100=



000
FTUS43 KMKX 281939 AAA
TAFMSN
TAF AMD
KMSN 281939Z 2820/2918 18013KT P6SM SCT050 BKN250
     FM290000 14008KT P6SM BKN250
     FM290900 16005KT P6SM VCSH SCT050 BKN100
     FM291500 20011G19KT P6SM BKN050=



000
FTUS43 KMKX 281939 AAA
TAFMSN
TAF AMD
KMSN 281939Z 2820/2918 18013KT P6SM SCT050 BKN250
     FM290000 14008KT P6SM BKN250
     FM290900 16005KT P6SM VCSH SCT050 BKN100
     FM291500 20011G19KT P6SM BKN050=



000
FTUS43 KMKX 281939 AAA
TAFMSN
TAF AMD
KMSN 281939Z 2820/2918 18013KT P6SM SCT050 BKN250
     FM290000 14008KT P6SM BKN250
     FM290900 16005KT P6SM VCSH SCT050 BKN100
     FM291500 20011G19KT P6SM BKN050=



000
FTUS43 KMKX 281731
TAFMSN
TAF
KMSN 281731Z 2818/2918 18011KT P6SM FEW050 BKN250
     FM290900 16005KT P6SM VCSH SCT050 BKN100
     FM291500 20011G19KT P6SM BKN050=



000
FTUS43 KMKX 281731
TAFMKE
TAF
KMKE 281731Z 2818/2924 15011KT P6SM SCT050 BKN250
     FM290100 15007KT P6SM BKN250
     FM291100 17008KT P6SM VCSH SCT050 BKN100
     FM291700 19012G20KT P6SM SCT050 BKN100
     FM292000 16010KT P6SM VCSH SCT050 OVC100=



000
FTUS43 KMKX 281731
TAFMSN
TAF
KMSN 281731Z 2818/2918 18011KT P6SM FEW050 BKN250
     FM290900 16005KT P6SM VCSH SCT050 BKN100
     FM291500 20011G19KT P6SM BKN050=



000
FTUS43 KMKX 281731
TAFMKE
TAF
KMKE 281731Z 2818/2924 15011KT P6SM SCT050 BKN250
     FM290100 15007KT P6SM BKN250
     FM291100 17008KT P6SM VCSH SCT050 BKN100
     FM291700 19012G20KT P6SM SCT050 BKN100
     FM292000 16010KT P6SM VCSH SCT050 OVC100=



000
FTUS43 KMKX 281508 AAA
TAFMSN
TAF AMD
KMSN 281508Z 2815/2912 22006KT P6SM BKN250
     FM281900 18010KT P6SM FEW050 BKN250
     FM290100 16008KT P6SM FEW250
     FM290900 16005KT P6SM BKN060=



000
FTUS43 KMKX 281508 AAA
TAFMSN
TAF AMD
KMSN 281508Z 2815/2912 22006KT P6SM BKN250
     FM281900 18010KT P6SM FEW050 BKN250
     FM290100 16008KT P6SM FEW250
     FM290900 16005KT P6SM BKN060=



000
FTUS43 KMKX 281503 AAA
TAFMKE
TAF AMD
KMKE 281503Z 2815/2918 26011KT P6SM SKC
     FM281600 19009KT P6SM FEW050
     FM281800 15012KT P6SM FEW250
     FM290000 15008KT P6SM FEW250
     FM291100 17010KT P6SM BKN060=



000
FTUS43 KMKX 281503 AAA
TAFMKE
TAF AMD
KMKE 281503Z 2815/2918 26011KT P6SM SKC
     FM281600 19009KT P6SM FEW050
     FM281800 15012KT P6SM FEW250
     FM290000 15008KT P6SM FEW250
     FM291100 17010KT P6SM BKN060=



000
FTUS43 KMKX 281503 AAA
TAFMKE
TAF AMD
KMKE 281503Z 2815/2918 26011KT P6SM SKC
     FM281600 19009KT P6SM FEW050
     FM281800 15012KT P6SM FEW250
     FM290000 15008KT P6SM FEW250
     FM291100 17010KT P6SM BKN060=



000
FTUS43 KMKX 281503 AAA
TAFMKE
TAF AMD
KMKE 281503Z 2815/2918 26011KT P6SM SKC
     FM281600 19009KT P6SM FEW050
     FM281800 15012KT P6SM FEW250
     FM290000 15008KT P6SM FEW250
     FM291100 17010KT P6SM BKN060=



000
FTUS43 KMKX 281136
TAFMKE
TAF
KMKE 281136Z 2812/2918 00000KT P6SM SKC
     FM281400 21006KT P6SM SKC
     FM281600 19009KT P6SM FEW050
     FM281800 15012KT P6SM FEW250
     FM290000 15008KT P6SM FEW250
     FM291100 17010KT P6SM BKN060=



000
FTUS43 KMKX 281136
TAFMKE
TAF
KMKE 281136Z 2812/2918 00000KT P6SM SKC
     FM281400 21006KT P6SM SKC
     FM281600 19009KT P6SM FEW050
     FM281800 15012KT P6SM FEW250
     FM290000 15008KT P6SM FEW250
     FM291100 17010KT P6SM BKN060=



000
FTUS43 KMKX 281136
TAFMKE
TAF
KMKE 281136Z 2812/2918 00000KT P6SM SKC
     FM281400 21006KT P6SM SKC
     FM281600 19009KT P6SM FEW050
     FM281800 15012KT P6SM FEW250
     FM290000 15008KT P6SM FEW250
     FM291100 17010KT P6SM BKN060=



000
FTUS43 KMKX 281136
TAFMSN
TAF
KMSN 281136Z 2812/2912 00000KT P6SM FEW250
     FM281500 21006KT P6SM FEW050
     FM281900 18010KT P6SM FEW050
     FM290100 16008KT P6SM FEW250
     FM290900 16005KT P6SM BKN060=



000
FTUS43 KMKX 281136
TAFMSN
TAF
KMSN 281136Z 2812/2912 00000KT P6SM FEW250
     FM281500 21006KT P6SM FEW050
     FM281900 18010KT P6SM FEW050
     FM290100 16008KT P6SM FEW250
     FM290900 16005KT P6SM BKN060=



000
FTUS43 KMKX 281136
TAFMSN
TAF
KMSN 281136Z 2812/2912 00000KT P6SM FEW250
     FM281500 21006KT P6SM FEW050
     FM281900 18010KT P6SM FEW050
     FM290100 16008KT P6SM FEW250
     FM290900 16005KT P6SM BKN060=



000
FTUS43 KMKX 281136
TAFMKE
TAF
KMKE 281136Z 2812/2918 00000KT P6SM SKC
     FM281400 21006KT P6SM SKC
     FM281600 19009KT P6SM FEW050
     FM281800 15012KT P6SM FEW250
     FM290000 15008KT P6SM FEW250
     FM291100 17010KT P6SM BKN060=



000
FTUS43 KMKX 281136
TAFMSN
TAF
KMSN 281136Z 2812/2912 00000KT P6SM FEW250
     FM281500 21006KT P6SM FEW050
     FM281900 18010KT P6SM FEW050
     FM290100 16008KT P6SM FEW250
     FM290900 16005KT P6SM BKN060=



000
FTUS43 KMKX 280917 AAA
TAFMKE
TAF AMD
KMKE 280917Z 2809/2912 21005KT P6SM FEW100
     FM281800 15011KT P6SM FEW250
     FM290100 15005KT P6SM SCT250
     FM290800 16007KT P6SM SCT050=



000
FTUS43 KMKX 280917 AAA
TAFMKE
TAF AMD
KMKE 280917Z 2809/2912 21005KT P6SM FEW100
     FM281800 15011KT P6SM FEW250
     FM290100 15005KT P6SM SCT250
     FM290800 16007KT P6SM SCT050=



000
FTUS43 KMKX 280520
TAFMSN
TAF
KMSN 280520Z 2806/2906 22005KT P6SM SKC
     FM281900 18009KT P6SM FEW250
     FM290200 15008KT P6SM SCT200=



000
FTUS43 KMKX 280520
TAFMKE
TAF
KMKE 280520Z 2806/2912 20005KT P6SM FEW250
     FM280800 20004KT P6SM VCSH SCT080 BKN250
     FM281000 22004KT P6SM SCT070
     FM281700 18009KT P6SM FEW250
     FM282000 15011KT P6SM FEW250
     FM290800 16007KT P6SM SCT050=



000
FTUS43 KMKX 280520
TAFMSN
TAF
KMSN 280520Z 2806/2906 22005KT P6SM SKC
     FM281900 18009KT P6SM FEW250
     FM290200 15008KT P6SM SCT200=



000
FTUS43 KMKX 280520
TAFMKE
TAF
KMKE 280520Z 2806/2912 20005KT P6SM FEW250
     FM280800 20004KT P6SM VCSH SCT080 BKN250
     FM281000 22004KT P6SM SCT070
     FM281700 18009KT P6SM FEW250
     FM282000 15011KT P6SM FEW250
     FM290800 16007KT P6SM SCT050=



000
FTUS43 KMKX 280336 AAA
TAFMKE
TAF AMD
KMKE 280336Z 2804/2906 16005KT P6SM FEW250
     FM280800 20004KT P6SM VCSH SCT070 BKN250
     FM281000 22004KT P6SM SCT070
     FM281800 16011KT P6SM SCT250
     FM290200 15007KT P6SM FEW250=



000
FTUS43 KMKX 280336 AAA
TAFMKE
TAF AMD
KMKE 280336Z 2804/2906 16005KT P6SM FEW250
     FM280800 20004KT P6SM VCSH SCT070 BKN250
     FM281000 22004KT P6SM SCT070
     FM281800 16011KT P6SM SCT250
     FM290200 15007KT P6SM FEW250=



000
FTUS43 KMKX 272320
TAFMKE
TAF
KMKE 272320Z 2800/2906 10006KT P6SM SKC
     FM280300 22004KT P6SM SKC
     FM281800 16011KT P6SM SCT250
     FM290200 15007KT P6SM FEW250=



000
FTUS43 KMKX 272320
TAFMSN
TAF
KMSN 272320Z 2800/2824 VRB03KT P6SM SKC
     FM281500 19007KT P6SM FEW250=



000
FTUS43 KMKX 272320
TAFMKE
TAF
KMKE 272320Z 2800/2906 10006KT P6SM SKC
     FM280300 22004KT P6SM SKC
     FM281800 16011KT P6SM SCT250
     FM290200 15007KT P6SM FEW250=



000
FTUS43 KMKX 272320
TAFMKE
TAF
KMKE 272320Z 2800/2906 10006KT P6SM SKC
     FM280300 22004KT P6SM SKC
     FM281800 16011KT P6SM SCT250
     FM290200 15007KT P6SM FEW250=



000
FTUS43 KMKX 272320
TAFMSN
TAF
KMSN 272320Z 2800/2824 VRB03KT P6SM SKC
     FM281500 19007KT P6SM FEW250=



000
FTUS43 KMKX 272050 AAA
TAFMSN
TAF AMD
KMSN 272050Z 2721/2818 33005KT P6SM FEW030 SCT100
     FM272200 27004KT P6SM FEW040
     FM280300 21004KT P6SM SKC
     FM281600 20008KT P6SM FEW040=



000
FTUS43 KMKX 272050 AAA
TAFMSN
TAF AMD
KMSN 272050Z 2721/2818 33005KT P6SM FEW030 SCT100
     FM272200 27004KT P6SM FEW040
     FM280300 21004KT P6SM SKC
     FM281600 20008KT P6SM FEW040=



    US Dept of Commerce
    National Oceanic and Atmospheric Administration
    National Weather Service
    1325 East West Highway
    Silver Spring, MD 20910
    Page Author: NWS Internet Services Team
Disclaimer
Information Quality
Credits
Glossary
Privacy Policy
Freedom of Information Act (FOIA)
About Us
Career Opportunities